Suches, GA (30572)

12:21 AM EST on January 18, 2017 (GMT -0500)
Kneedragger | | Change Station

Elev 2890 ft 34.69 °N, 84.02 °W | Updated 2 seconds ago

Mostly Cloudy
Mostly Cloudy
59.5 °F
Feels Like 59.5 °F
N
0.0
Wind Variable Wind from SW
Gusts 0.0 mph

Today
High -- | Low -- °F
--% Chance of Precip.
Yesterday
High -- | Low -- °F
Precip. -- in
Pressure 30.11 in
Visibility 10.0 miles
Clouds Scattered Clouds 3700 ft
Dew Point 52 °F
Humidity 77%
Rainfall 0.00 in
Snow Depth Not available.
7:42 AM 5:51 PM
Waning Gibbous, 66% visible
METAR KGVL 180453Z AUTO 23006KT 10SM SCT037 17/14 A3013 RMK AO2 SLP194 T01670139 402280117
Pressure 30.11 in
Visibility 10.0 miles
Clouds Scattered Clouds 3700 ft
Dew Point 52 °F
Humidity 77%
Rainfall 0.00 in
Snow Depth Not available.
7:42 AM 5:51 PM
Waning Gibbous, 66% visible
METAR KGVL 180453Z AUTO 23006KT 10SM SCT037 17/14 A3013 RMK AO2 SLP194 T01670139 402280117

Get Your Daily Forecast Email!

Thanks for signing up!

Be on the lookout for a verification email in your inbox.

You'll start receiving the daily forecast at 8 AM.

×

10-Day Weather Forecast

Almanac

Astronomy

Jan. 18, 2017 Rise Set
Actual Time
Civil Twilight
Nautical Twilight
Astronomical Twilight
Moon
Length of Visible Light
Length of Day
Tomorrow will be .
, % of the Moon is Illuminated

Today's Extremes

State Highs State Lows

Community

WunderPhotos

Upload Photos

1,962,540 photos uploaded!

WunderBlog® & News

Nearby

Air Quality

  Air Quality AQ Index Pollutant
Not available.

Snow Depth

Station Depth Elevation

Earthquake Activity

City Distance Mag. Time & Date
Minimum magnitude displayed is 2.5.

Coastal Water Temperatures

Place Temperature

Stations

Nearby Weather Stations

Station Location Temp. Windchill Dew Point Humidity Wind Precip. Elev Updated Type
                   

Watches & Warnings

There are currently no watches in effect.